createdAt,value
2022-10-14T00:01:10.833Z,76.76
2022-10-14T00:03:59.131Z,77.02
2022-10-14T00:06:51.361Z,77.86
2022-10-14T00:09:38.285Z,77.75
2022-10-14T00:12:25.449Z,76.90
2022-10-14T00:15:12.418Z,76.79
2022-10-14T00:17:59.793Z,76.70
2022-10-14T00:20:46.807Z,77.09
2022-10-14T00:23:33.793Z,77.42
2022-10-14T00:26:20.777Z,77.04
2022-10-14T00:29:08.338Z,76.95
2022-10-14T00:31:55.596Z,77.28
2022-10-14T00:34:42.572Z,76.93
2022-10-14T00:37:29.604Z,77.99
2022-10-14T00:40:16.508Z,77.45
2022-10-14T00:43:03.701Z,78.02
2022-10-14T00:45:50.598Z,78.06
2022-10-14T00:48:40.703Z,76.89
2022-10-14T00:51:27.677Z,77.50
2022-10-14T00:54:14.845Z,76.84
2022-10-14T00:57:03.392Z,78.06
2022-10-14T00:59:52.764Z,77.12
2022-10-14T01:02:39.876Z,77.88
2022-10-14T01:05:30.281Z,78.02
2022-10-14T01:08:31.372Z,77.62
2022-10-14T01:11:30.236Z,77.33
2022-10-14T01:14:27.888Z,77.48
2022-10-14T01:17:33.584Z,78.16
2022-10-14T01:20:32.766Z,77.69
2022-10-14T01:23:38.049Z,78.14
2022-10-14T01:26:47.380Z,77.78
2022-10-14T01:30:00.283Z,78.37
2022-10-14T01:33:10.452Z,77.64
2022-10-14T01:36:12.628Z,77.36
2022-10-14T01:39:18.541Z,77.31
2022-10-14T01:42:22.802Z,78.04
2022-10-14T01:45:39.561Z,77.12
2022-10-14T01:48:27.312Z,77.28
2022-10-14T01:51:17.021Z,77.30
2022-10-14T01:54:12.882Z,77.84
2022-10-14T01:57:03.332Z,78.01
2022-10-14T01:59:51.981Z,78.38
2022-10-14T02:02:39.181Z,78.00
2022-10-14T02:05:34.396Z,78.44
2022-10-14T02:08:37.329Z,77.81
2022-10-14T02:11:33.004Z,78.19
2022-10-14T02:14:39.077Z,77.95
2022-10-14T02:17:42.104Z,77.69
2022-10-14T02:21:03.169Z,77.25
2022-10-14T02:24:38.776Z,77.89
2022-10-14T02:27:33.731Z,77.00
2022-10-14T02:30:22.845Z,77.47
2022-10-14T02:33:18.740Z,78.12
2022-10-14T02:36:06.133Z,77.43
2022-10-14T02:38:56.809Z,77.68
2022-10-14T02:41:47.878Z,77.67
2022-10-14T02:44:34.823Z,77.95
2022-10-14T02:47:22.005Z,77.38
2022-10-14T02:50:09.845Z,77.51
2022-10-14T02:52:57.076Z,77.03
2022-10-14T02:55:44.042Z,77.88
2022-10-14T02:58:31.116Z,78.11
2022-10-14T03:01:18.177Z,77.63
2022-10-14T03:04:05.320Z,78.10
2022-10-14T03:06:52.809Z,78.21
2022-10-14T03:09:41.591Z,77.04
2022-10-14T03:12:29.800Z,77.36
2022-10-14T03:15:17.342Z,76.74
2022-10-14T03:18:04.233Z,77.39
2022-10-14T03:21:00.663Z,77.74
2022-10-14T03:23:53.944Z,77.60
2022-10-14T03:26:49.689Z,77.63
2022-10-14T03:29:41.359Z,76.92
2022-10-14T03:32:37.532Z,76.72
2022-10-14T03:35:42.635Z,76.50
2022-10-14T03:38:33.159Z,76.87
2022-10-14T03:41:21.429Z,76.70
2022-10-14T03:44:08.861Z,76.46
2022-10-14T03:46:58.710Z,76.83
2022-10-14T03:49:50.459Z,76.25
2022-10-14T03:52:46.583Z,76.72
2022-10-14T03:55:53.162Z,76.96
2022-10-14T03:58:41.363Z,76.98
2022-10-14T04:01:32.961Z,76.76
2022-10-14T04:04:36.611Z,76.84
2022-10-14T04:07:24.559Z,76.47
2022-10-14T04:10:16.219Z,77.12
2022-10-14T04:13:09.207Z,76.42
2022-10-14T04:15:58.274Z,76.54
2022-10-14T04:18:58.968Z,76.48
2022-10-14T04:21:45.896Z,76.40
2022-10-14T04:24:33.216Z,75.91
2022-10-14T04:27:20.167Z,77.02
2022-10-14T04:30:13.929Z,76.07
2022-10-14T04:33:09.069Z,76.35
2022-10-14T04:35:57.307Z,76.39
2022-10-14T04:38:48.707Z,76.62
2022-10-14T04:41:36.136Z,76.61
2022-10-14T04:44:24.277Z,76.29
2022-10-14T04:47:14.415Z,76.04
2022-10-14T04:50:01.512Z,75.70
2022-10-14T04:52:50.872Z,76.00
2022-10-14T04:55:38.372Z,76.54
2022-10-14T04:58:25.550Z,76.15
2022-10-14T05:01:15.492Z,75.98
2022-10-14T05:04:02.849Z,76.11
2022-10-14T05:06:54.942Z,76.40
2022-10-14T05:09:49.004Z,76.14
2022-10-14T05:12:52.346Z,75.97
2022-10-14T05:15:39.569Z,76.39
2022-10-14T05:18:31.634Z,76.17
2022-10-14T05:21:26.072Z,76.11
2022-10-14T05:24:23.064Z,76.36
2022-10-14T05:27:10.134Z,76.06
2022-10-14T05:29:57.312Z,75.87
2022-10-14T05:32:44.376Z,76.04
2022-10-14T05:35:57.097Z,76.21
2022-10-14T05:38:39.036Z,75.79
2022-10-14T05:41:25.931Z,76.20
2022-10-14T05:44:13.382Z,76.06
2022-10-14T05:47:00.192Z,76.09
2022-10-14T05:49:47.794Z,75.88
2022-10-14T05:52:35.361Z,76.00
2022-10-14T05:55:31.634Z,76.06
2022-10-14T05:58:21.845Z,76.24
2022-10-14T06:01:08.933Z,76.02
2022-10-14T06:03:59.068Z,76.08
2022-10-14T06:06:46.196Z,75.49
2022-10-14T06:09:35.093Z,76.08
2022-10-14T06:12:22.635Z,76.05
2022-10-14T06:15:10.757Z,76.07
2022-10-14T06:17:57.660Z,75.79
2022-10-14T06:20:45.781Z,76.11
2022-10-14T06:23:32.857Z,75.97
2022-10-14T06:26:25.099Z,76.18
2022-10-14T06:29:11.890Z,76.11
2022-10-14T06:31:58.848Z,76.23
2022-10-14T06:34:45.888Z,76.16
2022-10-14T06:37:32.806Z,76.31
2022-10-14T06:40:19.894Z,76.28
2022-10-14T06:43:06.869Z,76.25
2022-10-14T06:45:53.944Z,76.51
2022-10-14T06:48:40.806Z,76.30
2022-10-14T06:51:27.625Z,76.57
2022-10-14T06:54:14.554Z,76.66
2022-10-14T06:57:01.605Z,76.57
2022-10-14T06:59:48.669Z,76.24
2022-10-14T07:02:36.246Z,76.79
2022-10-14T07:05:23.413Z,76.80
2022-10-14T07:08:12.877Z,76.66
2022-10-14T07:11:02.762Z,76.43
2022-10-14T07:13:49.671Z,76.69
2022-10-14T07:16:36.583Z,76.79
2022-10-14T07:19:23.652Z,77.06
2022-10-14T07:22:10.545Z,76.64
2022-10-14T07:24:57.468Z,76.94
2022-10-14T07:27:24.777Z,76.46
2022-10-14T07:29:52.337Z,76.95
2022-10-14T07:32:19.289Z,77.12
2022-10-14T07:35:06.220Z,77.70
2022-10-14T07:37:53.180Z,77.06
2022-10-14T07:40:40.541Z,77.16
2022-10-14T07:43:27.602Z,77.47
2022-10-14T07:46:14.652Z,76.90
2022-10-14T07:49:01.619Z,77.28
2022-10-14T07:51:48.818Z,77.27
2022-10-14T07:54:42.134Z,77.37
2022-10-14T07:57:29.066Z,77.27
2022-10-14T08:00:15.864Z,77.67
2022-10-14T08:03:02.901Z,77.93
2022-10-14T08:05:49.728Z,77.72
2022-10-14T08:08:38.312Z,77.57
2022-10-14T08:11:31.708Z,77.87
2022-10-14T08:14:19.203Z,77.47
2022-10-14T08:17:06.348Z,78.03
2022-10-14T08:19:53.472Z,77.77
2022-10-14T08:22:41.018Z,77.90
2022-10-14T08:25:28.340Z,77.68
2022-10-14T08:28:15.613Z,77.72
2022-10-14T08:31:02.678Z,77.92
2022-10-14T08:33:49.704Z,77.72
2022-10-14T08:36:38.545Z,77.93
2022-10-14T08:39:25.687Z,77.72
2022-10-14T08:42:21.618Z,78.16
2022-10-14T08:45:15.003Z,78.26
2022-10-14T08:48:05.579Z,78.43
2022-10-14T08:50:56.040Z,77.91
2022-10-14T08:53:28.925Z,77.96
2022-10-14T08:56:00.567Z,78.29
2022-10-14T08:58:46.533Z,78.46
2022-10-14T09:01:25.049Z,78.12
2022-10-14T09:03:58.600Z,78.28
2022-10-14T09:06:31.805Z,78.72
2022-10-14T09:09:26.966Z,78.15
2022-10-14T09:12:25.039Z,78.84
2022-10-14T09:15:45.485Z,78.51
2022-10-14T09:18:50.871Z,78.68
2022-10-14T09:21:53.668Z,78.36
2022-10-14T09:24:59.049Z,78.92
2022-10-14T09:30:38.692Z,78.85
2022-10-14T09:33:26.393Z,78.71
2022-10-14T09:36:13.316Z,78.47
2022-10-14T09:39:03.843Z,79.04
2022-10-14T09:41:53.127Z,78.71
2022-10-14T09:44:43.264Z,79.14
2022-10-14T09:47:33.499Z,78.55
2022-10-14T09:50:20.560Z,78.92
2022-10-14T09:53:12.857Z,79.46
2022-10-14T09:56:08.683Z,78.57
2022-10-14T09:59:12.968Z,78.83
2022-10-14T10:02:08.731Z,78.88
2022-10-14T10:05:07.372Z,78.75
2022-10-14T10:07:55.221Z,79.58
2022-10-14T10:10:42.351Z,79.65
2022-10-14T10:13:43.319Z,79.08
2022-10-14T10:20:03.521Z,79.51
2022-10-14T10:22:50.564Z,79.73
2022-10-14T10:25:40.671Z,80.16
2022-10-14T10:28:37.641Z,79.80
2022-10-14T10:31:47.970Z,80.29
2022-10-14T10:34:46.621Z,79.92
2022-10-14T10:38:08.815Z,79.42
2022-10-14T10:41:19.104Z,80.42
2022-10-14T10:44:38.259Z,80.26
2022-10-14T10:47:51.295Z,79.45
2022-10-14T10:50:56.537Z,80.19
2022-10-14T10:54:13.109Z,80.30
2022-10-14T10:57:12.634Z,80.22
2022-10-14T11:00:02.258Z,80.51
2022-10-14T11:03:12.650Z,80.25
2022-10-14T11:06:14.879Z,80.27
2022-10-14T11:09:28.074Z,79.53
2022-10-14T11:12:32.830Z,80.36
2022-10-14T11:15:50.223Z,79.78
2022-10-14T11:19:01.074Z,80.12
2022-10-14T11:21:56.885Z,80.22
2022-10-14T11:24:43.770Z,80.12
2022-10-14T11:28:25.570Z,80.07
2022-10-14T11:31:25.601Z,80.03
2022-10-14T11:34:31.198Z,80.15
2022-10-14T11:37:31.253Z,79.56
2022-10-14T11:40:24.519Z,78.81
2022-10-14T11:43:53.541Z,79.88
2022-10-14T11:46:42.481Z,79.36
2022-10-14T11:49:52.437Z,78.80
2022-10-14T11:52:49.410Z,79.15
2022-10-14T11:55:49.810Z,79.11
2022-10-14T11:58:45.581Z,79.63
2022-10-14T12:01:42.655Z,79.58
2022-10-14T12:04:39.537Z,78.39
2022-10-14T12:07:38.918Z,78.62
2022-10-14T12:10:43.893Z,79.63
2022-10-14T12:13:37.493Z,79.36
2022-10-14T12:16:28.492Z,79.44
2022-10-14T12:19:17.086Z,79.07
2022-10-14T12:22:14.309Z,78.50
2022-10-14T12:25:10.270Z,78.74
2022-10-14T12:27:57.739Z,79.39
2022-10-14T12:30:59.136Z,78.67
2022-10-14T12:33:47.302Z,79.77
2022-10-14T12:36:32.976Z,79.02
2022-10-14T12:39:38.377Z,78.64
2022-10-14T12:42:31.721Z,78.79
2022-10-14T12:45:34.684Z,79.41
2022-10-14T12:48:37.339Z,78.66
2022-10-14T12:51:40.915Z,79.73
2022-10-14T12:54:34.492Z,79.12
2022-10-14T12:57:25.141Z,79.04
2022-10-14T13:00:14.472Z,79.46
2022-10-14T13:03:06.435Z,79.08
2022-10-14T13:05:58.857Z,79.52
2022-10-14T13:08:47.985Z,80.09
2022-10-14T13:11:46.812Z,80.05
2022-10-14T13:15:14.083Z,79.58
2022-10-14T13:18:07.188Z,79.06
2022-10-14T13:20:55.344Z,79.90
2022-10-14T13:23:51.319Z,79.88
2022-10-14T13:26:50.905Z,78.82
2022-10-14T13:29:41.212Z,79.60
2022-10-14T13:32:37.574Z,80.29
2022-10-14T13:35:50.246Z,79.70
2022-10-14T13:38:40.196Z,79.23
2022-10-14T13:41:36.969Z,78.91
2022-10-14T13:44:24.275Z,79.78
2022-10-14T13:47:13.203Z,78.89
2022-10-14T13:50:00.539Z,80.45
2022-10-14T13:52:48.144Z,80.26
2022-10-14T13:55:41.480Z,80.14
2022-10-14T13:58:37.412Z,79.00
2022-10-14T14:01:25.570Z,80.36
2022-10-14T14:04:15.812Z,80.15
2022-10-14T14:07:27.770Z,79.56
2022-10-14T14:10:25.741Z,79.47
2022-10-14T14:13:12.919Z,80.16
2022-10-14T14:16:00.185Z,80.02
2022-10-14T14:19:13.558Z,79.31
2022-10-14T14:22:00.645Z,79.88
2022-10-14T14:24:47.504Z,80.16
2022-10-14T14:27:38.160Z,80.33
2022-10-14T14:30:54.314Z,79.34
2022-10-14T14:33:53.912Z,79.45
2022-10-14T14:36:51.837Z,79.84
2022-10-14T14:39:45.689Z,79.27
2022-10-14T14:42:32.917Z,79.71
2022-10-14T14:45:27.828Z,79.88
2022-10-14T14:48:17.741Z,79.49
2022-10-14T14:51:05.499Z,80.27
2022-10-14T14:53:52.580Z,79.42
2022-10-14T14:57:04.905Z,80.44
2022-10-14T15:00:01.900Z,79.44
2022-10-14T15:02:50.928Z,80.56
2022-10-14T15:05:40.334Z,79.92
2022-10-14T15:08:41.851Z,80.21
2022-10-14T15:11:28.923Z,80.23
2022-10-14T15:14:20.088Z,80.38
2022-10-14T15:17:12.953Z,80.67
2022-10-14T15:19:59.922Z,81.46
2022-10-14T15:22:54.185Z,81.19
2022-10-14T15:25:47.491Z,80.86
2022-10-14T15:28:49.558Z,81.73
2022-10-14T15:31:36.636Z,81.34
2022-10-14T15:34:24.600Z,81.26
2022-10-14T15:37:12.648Z,81.78
2022-10-14T15:39:59.613Z,82.02
2022-10-14T15:42:46.632Z,81.08
2022-10-14T15:45:34.561Z,81.88
2022-10-14T15:48:26.368Z,81.08
2022-10-14T15:51:13.309Z,80.88
2022-10-14T15:54:00.275Z,81.04
2022-10-14T15:56:49.116Z,82.11
2022-10-14T15:59:36.260Z,81.27
2022-10-14T16:02:24.519Z,80.92
2022-10-14T16:05:19.878Z,82.50
2022-10-14T16:08:08.656Z,81.38
2022-10-14T16:10:55.606Z,81.59
2022-10-14T16:13:22.869Z,82.19
2022-10-14T16:15:54.793Z,82.07
2022-10-14T16:18:23.700Z,82.94
2022-10-14T16:20:55.311Z,82.74
2022-10-14T16:23:43.394Z,82.18
2022-10-14T16:26:30.540Z,81.95
2022-10-14T16:29:18.200Z,82.43
2022-10-14T16:32:08.866Z,83.09
2022-10-14T16:34:55.788Z,82.88
2022-10-14T16:37:42.709Z,82.23
2022-10-14T16:40:36.587Z,82.56
2022-10-14T16:43:25.722Z,82.15
2022-10-14T16:46:15.508Z,83.43
2022-10-14T16:49:03.238Z,82.25
2022-10-14T16:51:50.303Z,82.96
2022-10-14T16:54:37.237Z,82.99
2022-10-14T16:57:25.437Z,83.26
2022-10-14T17:00:12.337Z,83.26
2022-10-14T17:02:59.616Z,83.64
2022-10-14T17:05:46.465Z,83.82
2022-10-14T17:08:34.140Z,83.23
2022-10-14T17:11:21.086Z,83.36
2022-10-14T17:14:11.421Z,83.50
2022-10-14T17:16:58.468Z,83.17
2022-10-14T17:19:45.781Z,83.04
2022-10-14T17:22:32.766Z,83.63
2022-10-14T17:25:19.797Z,84.16
2022-10-14T17:28:07.146Z,83.99
2022-10-14T17:30:53.958Z,83.60
2022-10-14T17:33:41.026Z,83.51
2022-10-14T17:36:35.381Z,84.63
2022-10-14T17:39:27.627Z,84.72
2022-10-14T17:42:16.855Z,83.55
2022-10-14T17:45:07.121Z,84.20
2022-10-14T17:47:54.066Z,83.52
2022-10-14T17:50:41.361Z,83.77
2022-10-14T17:53:28.392Z,83.73
2022-10-14T17:56:15.541Z,84.37
2022-10-14T17:59:02.538Z,84.37
2022-10-14T18:02:02.269Z,83.80
2022-10-14T18:04:51.075Z,84.08
2022-10-14T18:07:37.938Z,84.54
2022-10-14T20:54:28.151Z,83.24
2022-10-14T20:56:55.404Z,84.45
2022-10-14T20:59:22.317Z,83.60
2022-10-14T21:01:49.385Z,83.55
2022-10-14T21:04:17.254Z,83.54
2022-10-14T21:07:04.105Z,84.72
2022-10-14T21:09:51.007Z,83.83
2022-10-14T21:12:38.485Z,84.46
2022-10-14T21:15:25.705Z,83.80
2022-10-14T21:18:12.853Z,84.44
2022-10-14T21:20:59.753Z,84.99
2022-10-14T21:23:46.668Z,84.74
2022-10-14T21:26:33.865Z,84.91
2022-10-14T21:29:21.406Z,84.38
2022-10-14T21:32:09.530Z,84.47
2022-10-14T21:34:56.332Z,83.50
2022-10-14T21:37:43.259Z,84.17
2022-10-14T21:40:30.624Z,84.65
2022-10-14T21:43:17.720Z,84.23
2022-10-14T21:46:04.644Z,84.21
2022-10-14T21:48:31.957Z,83.66
2022-10-14T21:51:04.160Z,83.94
2022-10-14T21:53:32.279Z,84.71
2022-10-14T21:55:59.848Z,84.14
2022-10-14T21:58:27.677Z,83.87
2022-10-14T22:01:22.901Z,83.90
2022-10-14T22:03:54.781Z,83.80
2022-10-14T22:06:21.763Z,84.10
2022-10-14T22:08:51.453Z,83.91
2022-10-14T22:11:30.321Z,83.96
2022-10-14T22:13:58.849Z,84.00
2022-10-14T22:16:28.826Z,84.60
2022-10-14T22:18:58.933Z,84.27
2022-10-14T22:21:47.584Z,84.20
2022-10-14T22:24:34.545Z,83.85
2022-10-14T22:27:21.760Z,83.83
2022-10-14T22:30:08.911Z,84.64
2022-10-14T22:32:56.049Z,84.06
2022-10-14T22:35:44.236Z,83.95
2022-10-14T22:38:31.244Z,84.37
2022-10-14T22:41:20.949Z,85.06
2022-10-14T22:44:16.082Z,85.08
2022-10-14T22:47:03.038Z,83.94
2022-10-14T22:49:49.928Z,84.93
2022-10-14T22:52:36.892Z,84.56
2022-10-14T22:55:24.108Z,84.67
2022-10-14T22:58:11.089Z,84.96
2022-10-14T23:00:58.247Z,83.92
2022-10-14T23:03:45.264Z,85.27
2022-10-14T23:06:33.720Z,84.00
2022-10-14T23:09:20.876Z,84.99
2022-10-14T23:12:07.725Z,84.28
2022-10-14T23:14:54.851Z,85.28
2022-10-14T23:17:42.097Z,84.18
2022-10-14T23:20:29.993Z,85.01
2022-10-14T23:23:17.110Z,84.30
2022-10-14T23:26:04.097Z,85.17
2022-10-14T23:28:51.255Z,84.90
2022-10-14T23:31:41.033Z,85.05
2022-10-14T23:34:32.299Z,84.26
2022-10-14T23:37:19.205Z,85.15
2022-10-14T23:40:06.197Z,84.38
2022-10-14T23:42:53.167Z,84.30
2022-10-14T23:45:40.105Z,85.11
2022-10-14T23:48:27.120Z,84.75
2022-10-14T23:51:14.481Z,84.78
2022-10-14T23:54:01.385Z,85.60
2022-10-14T23:56:48.299Z,84.56
2022-10-14T23:59:35.149Z,84.60
